Albuquerque International Sunport Airport
KABQ : rendu visible

Aérodrome :











RETROUVEZ-NOUS SUR...

 
LOGIN :

S'inscrire | Disclaimer

   EN    FR    IT 

 









Légende :    VFR   VFR Marginal   IFR   IFR Intensif   IFR Très Intensif
Visi : 
Plafond : 
>= 8 km
>= 3000ft
5 à 8 km
1000 à 3000 ft
1500m à 5 km
500 à 1000 ft
800 à 1500m
200 à 500 ft
< 800m
< 200 ft
Symboles :   Orages  Brouillard  Fortes neiges  Fortes précipitations  Vent > 20 kt






- Altitude de l'aérodrome : 5355 ft
- Code IATA : ABQ


KABQ - Albuquerque International Sunport

DERNIER METAR :
  • 201052Z 07013KT 10SM FEW020 FEW050 SCT090 03/M01 A3026 RMK AO2 PK WND 07026/1039 SLP225 MTN TOPS OBSC NE-E T00331011

METARs EXPIRÉS :
  • 200952Z 08018KT 10SM FEW020 FEW075 SCT090 04/M01 A3023 RMK AO2 SLP213 MTN TOPS OBSC E T00391006
  • 200852Z 04009KT 10SM FEW080 SCT100 SCT200 05/M01 A3021 RMK AO2 SLP209 T00501006 53017

TAF KABQ
Valide du 20 à 06h jusqu'au 21 à 06h UTC


200524Z 2006/2106 09008KT P6SM SCT100
FM200900 07012G22KT P6SM FEW050
FM201300 08022G33KT P6SM SCT050
FM202000 09015G25KT P6SM SCT050
FM210100 09020G30KT P6SM SCT050



MET'MAP, la Météo Aéronautique d'un coup d'oeil ! - Copyright ORBIFLY Décembre 2007 - Disclaimer

ORBIFLY MET'MAP TEAM :

Programmation & Développement : Alexandra Zaïnal
Sur une idée originale de : Baudouin d'Aumeries
Assistance à la programmation : Marc-Olivier Méhu
Soutien technique & logistique : Manuel Goepfert

Contact : metmap@orbifly.com




SOURCES & CREDITS :

   NOAA       Earth
Advisory